Luck, Wisconsin
Current Conditions -  °F | °C
As of 7:15 PM on Monday 22 Dec 2014 (Local Time) from KRZN Reporting Station
Broken Clouds Broken Clouds  
Wind Chill: 29°   Ceiling: 5500
Heat Index: 35°   Visibility: 7mi
Dew Point: 33°   Wind: 7mph
Humidity: 91%   Direction: 90°E
Pressure: 29.68"   Gusts: NA
Location:  45.58°N, 92.48°W
Report Text: KRZN 230115Z AUTO 09006KT 7SM SCT020 BKN055 02/00 A2968 RMK AO2 T00170003
Loading
Personal Weather Stations






























Interactive Weather Map New forecast layout! Learn more

10-Day Weather Forecast

Advertisements
Track Severe Weather on mobile